createdAt,value
2019-04-20T00:01:26.276Z,40.90
2019-04-20T00:03:53.576Z,41.40
2019-04-20T00:06:24.979Z,41.20
2019-04-20T00:08:59.813Z,41.30
2019-04-20T00:11:35.395Z,41.30
2019-04-20T00:14:05.416Z,41.70
2019-04-20T00:16:31.602Z,41.60
2019-04-20T00:19:04.115Z,41.00
2019-04-20T00:21:56.159Z,40.70
2019-04-20T00:24:41.086Z,41.30
2019-04-20T00:27:31.640Z,41.00
2019-04-20T00:30:00.141Z,41.10
2019-04-20T00:32:30.005Z,41.30
2019-04-20T00:34:48.886Z,42.10
2019-04-20T00:37:19.264Z,42.90
2019-04-20T00:39:49.238Z,42.80
2019-04-20T00:42:23.415Z,42.50
2019-04-20T00:44:56.410Z,42.70
2019-04-20T00:47:34.884Z,43.00
2019-04-20T00:50:08.099Z,42.90
2019-04-20T00:52:40.697Z,42.80
2019-04-20T00:54:58.561Z,42.80
2019-04-20T00:57:36.858Z,42.50
2019-04-20T01:00:16.419Z,42.60
2019-04-20T01:02:43.336Z,43.00
2019-04-20T01:05:26.715Z,42.90
2019-04-20T01:08:23.234Z,42.90
2019-04-20T01:10:56.585Z,42.70
2019-04-20T01:13:30.154Z,42.70
2019-04-20T01:16:07.623Z,42.50
2019-04-20T01:18:32.048Z,42.50
2019-04-20T01:21:06.571Z,43.20
2019-04-20T01:23:40.208Z,43.20
2019-04-20T01:26:10.871Z,43.20
2019-04-20T01:28:51.129Z,43.80
2019-04-20T01:31:21.920Z,43.70
2019-04-20T01:33:57.728Z,43.60
2019-04-20T01:36:36.840Z,43.90
2019-04-20T01:39:05.502Z,43.80
2019-04-20T01:41:22.403Z,43.90
2019-04-20T01:43:52.372Z,44.50
2019-04-20T01:46:26.342Z,44.30
2019-04-20T01:48:54.820Z,44.40
2019-04-20T01:51:30.736Z,44.80
2019-04-20T01:54:23.434Z,44.60
2019-04-20T01:56:54.921Z,45.20
2019-04-20T01:59:31.989Z,45.40
2019-04-20T02:02:15.249Z,45.40
2019-04-20T02:04:55.341Z,45.40
2019-04-20T02:07:31.054Z,45.30
2019-04-20T02:10:01.889Z,45.90
2019-04-20T02:12:33.859Z,45.90
2019-04-20T02:15:04.011Z,45.90
2019-04-20T02:17:39.172Z,45.90
2019-04-20T02:20:25.990Z,45.90
2019-04-20T02:22:51.573Z,45.90
2019-04-20T02:25:08.442Z,45.90
2019-04-20T02:27:45.618Z,45.90
2019-04-20T02:33:30.042Z,45.80
2019-04-20T02:36:16.300Z,46.10
2019-04-20T02:41:42.046Z,46.20
2019-04-20T02:44:27.993Z,46.70
2019-04-20T02:46:45.288Z,46.70
2019-04-20T02:49:10.650Z,46.80
2019-04-20T02:51:41.925Z,46.80
2019-04-20T02:54:17.031Z,46.90
2019-04-20T02:56:52.564Z,47.00
2019-04-20T02:59:45.106Z,47.10
2019-04-20T03:01:45.116Z,47.30
2019-04-20T03:04:01.018Z,47.40
2019-04-20T03:06:39.535Z,47.30
2019-04-20T03:09:20.342Z,47.60
2019-04-20T03:12:06.156Z,47.40
2019-04-20T03:14:23.969Z,47.50
2019-04-20T03:16:57.175Z,47.40
2019-04-20T03:19:23.667Z,48.00
2019-04-20T03:22:05.061Z,47.70
2019-04-20T03:24:38.873Z,47.80
2019-04-20T03:27:16.077Z,48.00
2019-04-20T03:29:56.767Z,47.80
2019-04-20T03:37:55.586Z,48.00
2019-04-20T03:40:08.348Z,48.90
2019-04-20T03:42:27.102Z,48.90
2019-04-20T03:45:05.326Z,49.00
2019-04-20T03:47:43.767Z,49.20
2019-04-20T03:50:24.460Z,50.20
2019-04-20T03:53:03.935Z,50.00
2019-04-20T03:56:02.227Z,50.00
2019-04-20T03:58:55.648Z,50.20
2019-04-20T04:02:14.947Z,50.20
2019-04-20T04:04:33.922Z,50.10
2019-04-20T04:06:49.915Z,49.90
2019-04-20T04:09:25.774Z,50.10
2019-04-20T04:11:58.526Z,50.10
2019-04-20T04:14:19.819Z,50.10
2019-04-20T04:16:54.857Z,50.70
2019-04-20T04:19:28.453Z,50.20
2019-04-20T04:22:11.059Z,50.50
2019-04-20T04:24:35.377Z,50.10
2019-04-20T04:27:09.449Z,50.40
2019-04-20T04:29:50.953Z,50.30
2019-04-20T04:32:37.837Z,50.30
2019-04-20T04:34:57.238Z,50.60
2019-04-20T04:37:24.289Z,51.00
2019-04-20T04:40:08.456Z,50.80
2019-04-20T04:42:37.436Z,50.80
2019-04-20T04:44:50.420Z,50.60
2019-04-20T04:47:15.317Z,51.70
2019-04-20T04:49:56.197Z,50.60
2019-04-20T04:52:27.432Z,49.80
2019-04-20T04:54:57.495Z,49.80
2019-04-20T04:57:22.209Z,51.10
2019-04-20T04:59:53.135Z,51.10
2019-04-20T05:02:29.771Z,52.10
2019-04-20T05:05:38.809Z,50.30
2019-04-20T05:08:00.369Z,51.40
2019-04-20T05:10:20.801Z,51.60
2019-04-20T05:12:51.786Z,52.00
2019-04-20T05:15:37.585Z,51.90
2019-04-20T05:18:11.891Z,52.40
2019-04-20T05:20:53.395Z,52.70
2019-04-20T05:23:24.284Z,52.60
2019-04-20T05:26:30.972Z,52.30
2019-04-20T05:28:59.119Z,51.80
2019-04-20T05:31:24.457Z,51.20
2019-04-20T05:34:14.358Z,51.50
2019-04-20T05:36:46.682Z,51.80
2019-04-20T05:39:23.640Z,50.90
2019-04-20T05:41:48.187Z,51.00
2019-04-20T05:44:16.725Z,50.70
2019-04-20T05:46:53.575Z,51.40
2019-04-20T05:49:25.882Z,50.80
2019-04-20T05:52:12.746Z,50.30
2019-04-20T05:54:40.327Z,50.40
2019-04-20T05:57:17.485Z,50.10
2019-04-20T05:59:45.026Z,49.40
2019-04-20T06:02:10.171Z,49.90
2019-04-20T06:07:24.011Z,50.10
2019-04-20T06:09:47.113Z,50.40
2019-04-20T06:12:35.745Z,50.50
2019-04-20T06:15:05.524Z,50.60
2019-04-20T06:18:02.505Z,50.40
2019-04-20T06:20:46.720Z,49.80
2019-04-20T06:26:27.070Z,49.70
2019-04-20T06:28:35.303Z,49.40
2019-04-20T06:31:14.749Z,49.30
2019-04-20T06:34:27.706Z,49.10
2019-04-20T06:36:52.639Z,48.80
2019-04-20T06:39:20.398Z,49.40
2019-04-20T06:42:08.417Z,48.70
2019-04-20T06:44:30.312Z,49.00
2019-04-20T06:47:04.099Z,48.10
2019-04-20T06:49:53.585Z,47.70
2019-04-20T06:52:18.245Z,45.90
2019-04-20T06:55:02.858Z,46.60
2019-04-20T06:57:40.392Z,46.40
2019-04-20T07:02:44.334Z,44.60
2019-04-20T07:05:26.018Z,45.40
2019-04-20T07:07:47.955Z,44.80
2019-04-20T07:12:46.726Z,42.30
2019-04-20T07:15:21.345Z,41.30
2019-04-20T07:18:00.298Z,40.60
2019-04-20T07:20:54.086Z,38.20
2019-04-20T07:23:26.883Z,39.20
2019-04-20T07:26:12.766Z,38.50
2019-04-20T07:28:27.815Z,36.80
2019-04-20T07:30:58.473Z,38.00
2019-04-20T07:33:37.561Z,37.00
2019-04-20T07:35:56.252Z,37.70
2019-04-20T07:38:34.294Z,37.80
2019-04-20T07:41:00.026Z,37.20
2019-04-20T07:43:33.285Z,35.80
2019-04-20T07:46:10.382Z,36.00
2019-04-20T07:48:41.034Z,36.60
2019-04-20T07:51:02.717Z,36.00
2019-04-20T07:53:39.275Z,35.50
2019-04-20T07:56:11.451Z,35.90
2019-04-20T07:58:33.918Z,34.40
2019-04-20T08:01:43.087Z,34.70
2019-04-20T08:04:13.502Z,32.00
2019-04-20T08:06:40.987Z,34.20
2019-04-20T08:09:22.014Z,31.90
2019-04-20T08:12:14.103Z,34.00
2019-04-20T08:14:52.167Z,33.00
2019-04-20T08:17:26.814Z,31.70
2019-04-20T08:19:45.479Z,31.90
2019-04-20T08:22:21.473Z,32.70
2019-04-20T08:24:42.861Z,32.20
2019-04-20T08:27:09.131Z,32.20
2019-04-20T08:29:53.191Z,32.30
2019-04-20T08:32:51.588Z,32.00
2019-04-20T08:35:32.096Z,31.40
2019-04-20T08:38:14.954Z,31.30
2019-04-20T08:40:31.857Z,31.10
2019-04-20T08:43:11.183Z,30.30
2019-04-20T08:45:43.016Z,31.00
2019-04-20T08:48:11.310Z,29.90
2019-04-20T08:50:41.398Z,30.30
2019-04-20T08:53:20.756Z,29.70
2019-04-20T08:55:41.577Z,29.60
2019-04-20T08:57:57.528Z,29.20
2019-04-20T09:00:33.130Z,29.30
2019-04-20T09:03:31.658Z,29.40
2019-04-20T09:06:08.696Z,30.10
2019-04-20T09:08:44.805Z,29.00
2019-04-20T09:11:23.187Z,28.20
2019-04-20T09:13:43.136Z,28.80
2019-04-20T09:16:08.824Z,29.50
2019-04-20T09:18:47.629Z,28.20
2019-04-20T09:21:26.313Z,28.20
2019-04-20T09:24:16.800Z,28.40
2019-04-20T09:26:43.263Z,27.40
2019-04-20T09:29:05.617Z,28.40
2019-04-20T09:31:45.703Z,29.00
2019-04-20T09:34:42.712Z,28.80
2019-04-20T09:37:29.616Z,29.30
2019-04-20T09:40:40.461Z,29.30
2019-04-20T09:43:00.245Z,28.90
2019-04-20T09:45:46.215Z,28.50
2019-04-20T09:48:18.174Z,28.70
2019-04-20T09:51:05.850Z,28.80
2019-04-20T09:53:30.196Z,28.30
2019-04-20T09:56:06.238Z,28.50
2019-04-20T09:58:31.122Z,27.90
2019-04-20T10:01:08.419Z,27.20
2019-04-20T10:03:24.854Z,27.00
2019-04-20T10:05:55.910Z,26.80
2019-04-20T10:08:26.163Z,26.40
2019-04-20T10:10:56.192Z,27.10
2019-04-20T10:13:27.191Z,26.40
2019-04-20T10:15:57.663Z,26.60
2019-04-20T10:18:28.041Z,25.70
2019-04-20T10:20:58.085Z,26.60
2019-04-20T10:23:28.009Z,26.40
2019-04-20T10:25:58.570Z,25.60
2019-04-20T10:28:29.755Z,26.10
2019-04-20T10:31:00.037Z,25.50
2019-04-20T10:33:31.260Z,25.10
2019-04-20T10:36:01.841Z,25.10
2019-04-20T10:38:34.287Z,25.30
2019-04-20T10:41:11.651Z,25.30
2019-04-20T10:43:36.267Z,24.60
2019-04-20T10:46:06.922Z,24.40
2019-04-20T10:48:40.285Z,24.00
2019-04-20T10:51:08.602Z,23.80
2019-04-20T10:53:38.607Z,23.20
2019-04-20T10:56:09.633Z,23.40
2019-04-20T10:58:40.040Z,22.90
2019-04-20T11:01:09.987Z,22.60
2019-04-20T11:03:40.746Z,22.20
2019-04-20T11:06:11.035Z,22.80
2019-04-20T11:08:42.436Z,22.20
2019-04-20T11:11:19.127Z,22.20
2019-04-20T11:13:45.632Z,22.40
2019-04-20T11:16:15.565Z,22.60
2019-04-20T11:18:45.479Z,23.20
2019-04-20T11:21:15.454Z,22.90
2019-04-20T11:23:46.604Z,22.20
2019-04-20T11:26:16.538Z,21.10
2019-04-20T11:28:46.388Z,21.30
2019-04-20T11:31:16.677Z,21.90
2019-04-20T11:33:47.946Z,21.50
2019-04-20T11:36:19.159Z,21.80
2019-04-20T11:38:49.247Z,20.50
2019-04-20T11:41:25.582Z,20.70
2019-04-20T11:43:51.554Z,21.10
2019-04-20T11:46:22.832Z,21.20
2019-04-20T11:48:52.930Z,21.40
2019-04-20T11:51:23.367Z,21.80
2019-04-20T11:53:54.376Z,20.40
2019-04-20T11:56:28.465Z,21.60
2019-04-20T11:58:56.772Z,22.10
2019-04-20T12:01:51.918Z,21.80
2019-04-20T12:04:33.739Z,21.30
2019-04-20T12:06:57.043Z,21.30
2019-04-20T12:09:27.179Z,21.40
2019-04-20T12:12:09.343Z,21.60
2019-04-20T12:14:28.949Z,21.80
2019-04-20T12:16:59.628Z,21.80
2019-04-20T12:19:31.078Z,21.30
2019-04-20T12:22:01.164Z,20.90
2019-04-20T12:24:31.283Z,21.00
2019-04-20T12:27:01.132Z,21.40
2019-04-20T12:29:32.070Z,20.30
2019-04-20T12:32:05.154Z,20.30
2019-04-20T12:34:35.001Z,20.40
2019-04-20T12:37:05.072Z,21.10
2019-04-20T12:39:35.337Z,20.20
2019-04-20T12:42:08.157Z,20.70
2019-04-20T12:44:37.685Z,19.00
2019-04-20T12:47:07.831Z,19.00
2019-04-20T12:49:37.958Z,19.80
2019-04-20T12:52:08.695Z,18.50
2019-04-20T12:54:41.159Z,18.80
2019-04-20T12:57:10.873Z,18.50
2019-04-20T12:59:42.740Z,18.00
2019-04-20T13:02:13.458Z,18.30
2019-04-20T13:04:43.632Z,17.50
2019-04-20T13:07:13.512Z,17.50
2019-04-20T13:09:50.726Z,17.30
2019-04-20T13:12:46.725Z,16.90
2019-04-20T13:15:36.319Z,16.70
2019-04-20T13:18:07.466Z,16.60
2019-04-20T13:20:37.889Z,17.10
2019-04-20T13:23:09.157Z,17.10
2019-04-20T13:25:39.430Z,17.70
2019-04-20T13:28:10.692Z,17.00
2019-04-20T13:30:41.889Z,16.50
2019-04-20T13:33:12.123Z,16.80
2019-04-20T13:35:42.223Z,16.00
2019-04-20T13:38:12.246Z,16.50
2019-04-20T13:40:42.321Z,16.70
2019-04-20T13:43:12.279Z,16.80
2019-04-20T13:45:42.670Z,16.20
2019-04-20T13:48:12.971Z,16.40
2019-04-20T13:50:44.172Z,17.00
2019-04-20T13:53:14.947Z,15.90
2019-04-20T13:55:45.719Z,15.40
2019-04-20T13:58:33.888Z,15.80
2019-04-20T14:01:18.845Z,15.40
2019-04-20T14:04:05.344Z,15.30
2019-04-20T14:06:35.605Z,15.20
2019-04-20T14:09:08.052Z,15.40
2019-04-20T14:11:39.184Z,15.40
2019-04-20T14:14:10.744Z,15.80
2019-04-20T14:16:41.215Z,15.00
2019-04-20T14:19:11.320Z,15.00
2019-04-20T14:21:41.735Z,15.20
2019-04-20T14:24:15.071Z,14.90
2019-04-20T14:26:45.848Z,14.90
2019-04-20T14:29:16.980Z,14.60
2019-04-20T14:31:48.042Z,14.80
2019-04-20T14:34:18.078Z,14.60
2019-04-20T14:36:48.808Z,14.10
2019-04-20T14:39:18.757Z,14.20
2019-04-20T14:42:06.597Z,14.30
2019-04-20T14:44:37.773Z,14.80
2019-04-20T14:47:08.110Z,15.00
2019-04-20T14:49:40.853Z,14.80
2019-04-20T14:52:11.502Z,13.30
2019-04-20T14:54:41.671Z,14.00
2019-04-20T14:57:11.756Z,13.80
2019-04-20T14:59:45.804Z,13.90
2019-04-20T15:02:19.442Z,13.00
2019-04-20T15:04:50.526Z,12.70
2019-04-20T15:07:20.673Z,13.50
2019-04-20T15:09:51.066Z,11.30
2019-04-20T15:12:21.341Z,11.50
2019-04-20T15:14:52.533Z,9.90
2019-04-20T15:17:41.664Z,11.00
2019-04-20T15:20:37.520Z,10.90
2019-04-20T15:23:17.560Z,10.60
2019-04-20T15:25:48.641Z,10.60
2019-04-20T15:28:20.415Z,10.60
2019-04-20T15:30:52.034Z,11.50
2019-04-20T15:33:23.239Z,11.70
2019-04-20T15:35:53.031Z,10.80
2019-04-20T15:38:23.222Z,10.90
2019-04-20T15:40:53.357Z,10.70
2019-04-20T15:43:27.463Z,11.00
2019-04-20T15:45:55.267Z,11.20
2019-04-20T15:48:25.970Z,11.20
2019-04-20T15:50:59.030Z,11.00
2019-04-20T15:53:29.477Z,11.30
2019-04-20T15:56:02.757Z,11.20
2019-04-20T15:58:32.355Z,11.40
2019-04-20T16:01:05.655Z,11.00
2019-04-20T16:03:45.720Z,11.70
2019-04-20T16:06:21.338Z,10.60
2019-04-20T16:08:56.495Z,10.90
2019-04-20T16:11:26.720Z,10.40
2019-04-20T16:14:02.000Z,10.70
2019-04-20T16:16:33.901Z,10.60
2019-04-20T16:19:15.937Z,10.70
2019-04-20T16:21:37.524Z,10.60
2019-04-20T16:24:16.910Z,10.50
2019-04-20T16:27:18.171Z,10.60
2019-04-20T16:29:49.413Z,10.60
2019-04-20T16:32:20.602Z,11.00
2019-04-20T16:34:50.750Z,10.70
2019-04-20T16:37:20.567Z,10.80
2019-04-20T16:39:50.529Z,10.90
2019-04-20T16:42:20.623Z,11.00
2019-04-20T16:44:51.404Z,11.30
2019-04-20T16:47:22.026Z,11.30
2019-04-20T16:49:52.849Z,11.20
2019-04-20T16:52:23.094Z,10.80
2019-04-20T16:54:53.524Z,11.20
2019-04-20T16:57:24.114Z,11.20
2019-04-20T16:59:57.538Z,11.00
2019-04-20T17:02:26.578Z,11.30
2019-04-20T17:04:56.750Z,12.00
2019-04-20T17:07:31.162Z,11.60
2019-04-20T17:10:02.287Z,11.50
2019-04-20T17:12:33.648Z,11.60
2019-04-20T17:15:05.621Z,11.20
2019-04-20T17:17:36.061Z,11.20
2019-04-20T17:20:07.709Z,11.30
2019-04-20T17:22:37.574Z,11.60
2019-04-20T17:25:08.324Z,11.80
2019-04-20T17:28:07.091Z,11.90
2019-04-20T17:31:03.178Z,12.10
2019-04-20T17:33:50.698Z,12.40
2019-04-20T17:36:14.969Z,13.00
2019-04-20T17:38:44.578Z,12.40
2019-04-20T17:41:36.243Z,12.30
2019-04-20T17:44:05.487Z,12.30
2019-04-20T17:46:35.742Z,12.60
2019-04-20T17:49:09.072Z,12.50
2019-04-20T17:51:47.660Z,12.80
2019-04-20T17:54:22.016Z,12.90
2019-04-20T17:56:52.544Z,13.10
2019-04-20T17:59:22.508Z,13.40
2019-04-20T18:02:45.959Z,13.60
2019-04-20T18:05:49.958Z,14.00
2019-04-20T18:08:28.430Z,14.30
2019-04-20T18:10:50.648Z,17.80
2019-04-20T18:13:16.566Z,15.80
2019-04-20T18:15:56.277Z,16.40
2019-04-20T18:18:47.813Z,19.40
2019-04-20T18:21:12.882Z,19.70
2019-04-20T18:23:45.185Z,18.60
2019-04-20T18:26:31.995Z,20.00
2019-04-20T18:29:20.217Z,20.80
2019-04-20T18:31:43.811Z,20.40
2019-04-20T18:34:22.192Z,18.90
2019-04-20T18:36:52.414Z,19.80
2019-04-20T18:39:29.085Z,21.30
2019-04-20T18:42:02.719Z,20.90
2019-04-20T18:44:30.429Z,18.90
2019-04-20T18:47:21.669Z,18.90
2019-04-20T18:49:43.451Z,18.50
2019-04-20T18:52:01.973Z,19.20
2019-04-20T18:54:37.663Z,19.10
2019-04-20T18:57:11.134Z,19.10
2019-04-20T18:59:42.666Z,19.00
2019-04-20T19:02:14.931Z,19.20
2019-04-20T19:04:41.808Z,19.80
2019-04-20T19:07:12.046Z,20.50
2019-04-20T19:09:44.803Z,20.90
2019-04-20T19:12:16.114Z,21.10
2019-04-20T19:15:12.059Z,21.40
2019-04-20T19:17:49.892Z,21.70
2019-04-20T19:20:20.601Z,22.00
2019-04-20T19:22:52.427Z,22.20
2019-04-20T19:25:27.362Z,22.10
2019-04-20T19:27:56.598Z,22.20
2019-04-20T19:30:35.226Z,22.50
2019-04-20T19:33:17.839Z,22.80
2019-04-20T19:35:41.582Z,22.70
2019-04-20T19:38:10.523Z,23.00
2019-04-20T19:40:45.357Z,23.40
2019-04-20T19:43:18.206Z,24.10
2019-04-20T19:46:07.291Z,23.90
2019-04-20T19:48:22.728Z,24.00
2019-04-20T19:51:05.894Z,24.30
2019-04-20T19:53:30.572Z,24.90
2019-04-20T19:55:59.116Z,24.80
2019-04-20T19:58:28.222Z,25.00
2019-04-20T20:00:53.217Z,24.60
2019-04-20T20:03:21.930Z,24.60
2019-04-20T20:05:54.163Z,24.60
2019-04-20T20:08:27.802Z,24.60
2019-04-20T20:11:00.847Z,24.60
2019-04-20T20:13:34.568Z,24.60
2019-04-20T20:16:09.717Z,25.30
2019-04-20T20:18:49.003Z,25.30
2019-04-20T20:21:20.052Z,25.70
2019-04-20T20:23:38.364Z,25.70
2019-04-20T20:26:19.653Z,26.20
2019-04-20T20:28:51.811Z,26.20
2019-04-20T20:31:23.477Z,26.40
2019-04-20T20:33:58.125Z,26.80
2019-04-20T20:36:23.496Z,26.90
2019-04-20T20:39:02.892Z,27.10
2019-04-20T20:41:30.102Z,27.40
2019-04-20T20:44:05.817Z,27.30
2019-04-20T20:46:37.807Z,27.50
2019-04-20T20:49:30.782Z,27.60
2019-04-20T20:51:54.079Z,27.90
2019-04-20T20:54:29.534Z,28.00
2019-04-20T20:56:51.346Z,28.10
2019-04-20T20:59:30.745Z,28.20
2019-04-20T21:01:54.065Z,28.40
2019-04-20T21:04:19.594Z,28.40
2019-04-20T21:06:50.590Z,28.50
2019-04-20T21:09:24.172Z,28.60
2019-04-20T21:12:00.591Z,28.50
2019-04-20T21:14:31.751Z,28.80
2019-04-20T21:17:05.527Z,29.10
2019-04-20T21:19:54.998Z,29.00
2019-04-20T21:22:14.329Z,29.60
2019-04-20T21:24:42.429Z,29.50
2019-04-20T21:27:17.039Z,29.10
2019-04-20T21:29:51.374Z,29.60
2019-04-20T21:32:19.723Z,29.80
2019-04-20T21:34:57.798Z,30.00
2019-04-20T21:37:24.961Z,29.90
2019-04-20T21:39:58.970Z,30.70
2019-04-20T21:42:28.540Z,30.60
2019-04-20T21:45:04.588Z,30.50
2019-04-20T21:47:33.824Z,30.50
2019-04-20T21:50:20.621Z,30.50
2019-04-20T21:52:40.875Z,30.40
2019-04-20T21:55:06.027Z,30.60
2019-04-20T21:57:39.694Z,30.30
2019-04-20T22:00:21.720Z,30.30
2019-04-20T22:02:54.187Z,30.90
2019-04-20T22:05:16.874Z,31.00
2019-04-20T22:07:46.834Z,31.80
2019-04-20T22:10:21.363Z,31.80
2019-04-20T22:12:54.636Z,31.80
2019-04-20T22:15:28.060Z,31.80
2019-04-20T22:17:53.039Z,32.30
2019-04-20T22:20:32.517Z,32.10
2019-04-20T22:23:06.006Z,32.50
2019-04-20T22:25:42.551Z,32.50
2019-04-20T22:28:01.770Z,32.90
2019-04-20T22:30:32.247Z,32.90
2019-04-20T22:33:10.032Z,33.30
2019-04-20T22:35:45.407Z,33.30
2019-04-20T22:38:26.747Z,33.70
2019-04-20T22:41:05.632Z,33.80
2019-04-20T22:43:33.904Z,33.90
2019-04-20T22:46:01.280Z,34.30
2019-04-20T22:48:31.414Z,34.40
2019-04-20T22:51:19.696Z,34.00
2019-04-20T22:53:45.295Z,34.00
2019-04-20T22:56:27.968Z,34.40
2019-04-20T22:58:50.010Z,34.20
2019-04-20T23:01:20.001Z,34.40
2019-04-20T23:03:41.116Z,34.70
2019-04-20T23:06:12.495Z,34.40
2019-04-20T23:08:47.300Z,34.60
2019-04-20T23:11:21.605Z,35.30
2019-04-20T23:13:49.938Z,35.40
2019-04-20T23:16:18.916Z,35.20
2019-04-20T23:18:49.973Z,34.90
2019-04-20T23:21:19.915Z,35.20
2019-04-20T23:23:55.790Z,35.00
2019-04-20T23:26:27.859Z,35.00
2019-04-20T23:28:57.091Z,35.30
2019-04-20T23:31:27.019Z,35.60
2019-04-20T23:34:01.473Z,35.70
2019-04-20T23:36:36.557Z,35.70
2019-04-20T23:39:03.025Z,35.90
2019-04-20T23:41:33.434Z,35.80
2019-04-20T23:44:35.719Z,35.90
2019-04-20T23:47:34.282Z,35.60
2019-04-20T23:50:20.938Z,35.70
2019-04-20T23:52:59.721Z,36.00
2019-04-20T23:55:14.883Z,36.10
2019-04-20T23:57:46.102Z,36.70
